sensor_id;sensor_type;location;lat;lon;timestamp;P1;durP1;ratioP1;P2;durP2;ratioP2
73315;SDS011;61545;53.726;-0.444;2023-06-26T00:03:36;6.1;;;1.7;;
73315;SDS011;61545;53.726;-0.444;2023-06-26T00:08:36;3.6;;;1.7;;
73315;SDS011;61545;53.726;-0.444;2023-06-26T00:13:36;3.8;;;1.6;;
73315;SDS011;61545;53.726;-0.444;2023-06-26T00:18:36;3.8;;;1.6;;
73315;SDS011;61545;53.726;-0.444;2023-06-26T00:23:36;2.9;;;1.6;;
73315;SDS011;61545;53.726;-0.444;2023-06-26T00:28:36;5.4;;;1.9;;
73315;SDS011;61545;53.726;-0.444;2023-06-26T00:33:36;5.3;;;1.9;;
73315;SDS011;61545;53.726;-0.444;2023-06-26T00:38:36;5.7;;;1.9;;
73315;SDS011;61545;53.726;-0.444;2023-06-26T00:43:36;6.2;;;1.7;;
73315;SDS011;61545;53.726;-0.444;2023-06-26T00:48:36;6.2;;;1.7;;
73315;SDS011;61545;53.726;-0.444;2023-06-26T00:53:36;5.2;;;1.7;;
73315;SDS011;61545;53.726;-0.444;2023-06-26T00:58:36;4.0;;;1.6;;
73315;SDS011;61545;53.726;-0.444;2023-06-26T01:03:36;6.2;;;1.7;;
73315;SDS011;61545;53.726;-0.444;2023-06-26T01:08:36;5.2;;;1.5;;
73315;SDS011;61545;53.726;-0.444;2023-06-26T01:13:36;7.5;;;2;;
73315;SDS011;61545;53.726;-0.444;2023-06-26T01:18:37;7.5;;;2;;
73315;SDS011;61545;53.726;-0.444;2023-06-26T01:23:38;4.5;;;1.6;;
73315;SDS011;61545;53.726;-0.444;2023-06-26T01:28:38;6.6;;;1.5;;
73315;SDS011;61545;53.726;-0.444;2023-06-26T01:33:36;3.8;;;1.4;;
73315;SDS011;61545;53.726;-0.444;2023-06-26T01:38:36;6.1;;;1.5;;
73315;SDS011;61545;53.726;-0.444;2023-06-26T01:43:41;5.4;;;1.2;;
73315;SDS011;61545;53.726;-0.444;2023-06-26T01:48:38;5.4;;;1.2;;
73315;SDS011;61545;53.726;-0.444;2023-06-26T01:53:38;6.3;;;1;;
73315;SDS011;61545;53.726;-0.444;2023-06-26T01:58:36;4.5;;;1.1;;
73315;SDS011;61545;53.726;-0.444;2023-06-26T02:03:36;4.1;;;1.4;;
73315;SDS011;61545;53.726;-0.444;2023-06-26T02:08:36;7.0;;;1.4;;
73315;SDS011;61545;53.726;-0.444;2023-06-26T02:13:36;2.3;;;1.1;;
73315;SDS011;61545;53.726;-0.444;2023-06-26T02:18:36;2.3;;;1.1;;
73315;SDS011;61545;53.726;-0.444;2023-06-26T02:23:36;6.9;;;1.6;;
73315;SDS011;61545;53.726;-0.444;2023-06-26T02:28:36;4.6;;;1.3;;
73315;SDS011;61545;53.726;-0.444;2023-06-26T02:33:36;6.2;;;1.4;;
73315;SDS011;61545;53.726;-0.444;2023-06-26T02:38:36;5.6;;;1.5;;
73315;SDS011;61545;53.726;-0.444;2023-06-26T02:43:36;4.1;;;1.5;;
73315;SDS011;61545;53.726;-0.444;2023-06-26T02:48:36;4.1;;;1.5;;
73315;SDS011;61545;53.726;-0.444;2023-06-26T02:53:36;5.3;;;1.3;;
73315;SDS011;61545;53.726;-0.444;2023-06-26T02:58:36;7.7;;;1.3;;
73315;SDS011;61545;53.726;-0.444;2023-06-26T03:03:36;5.1;;;1.2;;
73315;SDS011;61545;53.726;-0.444;2023-06-26T03:08:36;6.5;;;1.7;;
73315;SDS011;61545;53.726;-0.444;2023-06-26T03:13:36;5.8;;;1.8;;
73315;SDS011;61545;53.726;-0.444;2023-06-26T03:18:36;5.8;;;1.8;;
73315;SDS011;61545;53.726;-0.444;2023-06-26T03:23:36;4.7;;;1.5;;
73315;SDS011;61545;53.726;-0.444;2023-06-26T03:28:36;5.3;;;1.5;;
73315;SDS011;61545;53.726;-0.444;2023-06-26T03:33:37;4.3;;;1.4;;
73315;SDS011;61545;53.726;-0.444;2023-06-26T03:38:36;6.9;;;1.5;;
73315;SDS011;61545;53.726;-0.444;2023-06-26T03:43:36;5.3;;;1.5;;
73315;SDS011;61545;53.726;-0.444;2023-06-26T03:48:36;5.3;;;1.5;;
73315;SDS011;61545;53.726;-0.444;2023-06-26T03:53:36;4.2;;;1.5;;
73315;SDS011;61545;53.726;-0.444;2023-06-26T03:58:36;7.9;;;1.5;;
73315;SDS011;61545;53.726;-0.444;2023-06-26T04:03:36;7.0;;;1.5;;
73315;SDS011;61545;53.726;-0.444;2023-06-26T04:08:36;5.9;;;1.5;;
73315;SDS011;61545;53.726;-0.444;2023-06-26T04:13:36;5.9;;;1.6;;
73315;SDS011;61545;53.726;-0.444;2023-06-26T04:18:36;5.9;;;1.6;;
73315;SDS011;61545;53.726;-0.444;2023-06-26T04:23:37;7.5;;;1.8;;
73315;SDS011;61545;53.726;-0.444;2023-06-26T04:28:36;7.4;;;1.8;;
73315;SDS011;61545;53.726;-0.444;2023-06-26T04:33:37;5.8;;;1.8;;
73315;SDS011;61545;53.726;-0.444;2023-06-26T04:38:36;7.5;;;1.5;;
73315;SDS011;61545;53.726;-0.444;2023-06-26T04:43:36;6.4;;;1.4;;
73315;SDS011;61545;53.726;-0.444;2023-06-26T04:48:36;6.4;;;1.4;;
73315;SDS011;61545;53.726;-0.444;2023-06-26T04:53:36;4.4;;;1.2;;
73315;SDS011;61545;53.726;-0.444;2023-06-26T04:58:36;7.6;;;1.4;;
73315;SDS011;61545;53.726;-0.444;2023-06-26T05:03:36;6.0;;;1.4;;
73315;SDS011;61545;53.726;-0.444;2023-06-26T05:08:36;14.6;;;2.2;;
73315;SDS011;61545;53.726;-0.444;2023-06-26T05:13:36;6.8;;;1.4;;
73315;SDS011;61545;53.726;-0.444;2023-06-26T05:18:36;6.8;;;1.4;;
73315;SDS011;61545;53.726;-0.444;2023-06-26T05:23:37;3.7;;;1.3;;
73315;SDS011;61545;53.726;-0.444;2023-06-26T05:28:37;7.2;;;1.6;;
73315;SDS011;61545;53.726;-0.444;2023-06-26T05:33:36;4.0;;;1.3;;
73315;SDS011;61545;53.726;-0.444;2023-06-26T05:38:37;8.0;;;1.8;;
73315;SDS011;61545;53.726;-0.444;2023-06-26T05:43:36;4.9;;;1.5;;
73315;SDS011;61545;53.726;-0.444;2023-06-26T05:48:36;4.9;;;1.5;;
73315;SDS011;61545;53.726;-0.444;2023-06-26T05:53:37;6.8;;;1.6;;
73315;SDS011;61545;53.726;-0.444;2023-06-26T05:58:37;7.4;;;1.7;;
73315;SDS011;61545;53.726;-0.444;2023-06-26T06:03:36;6.2;;;1.4;;
73315;SDS011;61545;53.726;-0.444;2023-06-26T06:08:36;5.9;;;1.9;;
73315;SDS011;61545;53.726;-0.444;2023-06-26T06:13:37;11.0;;;2;;
73315;SDS011;61545;53.726;-0.444;2023-06-26T06:18:36;11.0;;;2;;
73315;SDS011;61545;53.726;-0.444;2023-06-26T06:23:36;4.7;;;1.4;;
73315;SDS011;61545;53.726;-0.444;2023-06-26T06:28:36;5.3;;;1.3;;
73315;SDS011;61545;53.726;-0.444;2023-06-26T06:33:37;7.2;;;1.7;;
73315;SDS011;61545;53.726;-0.444;2023-06-26T06:38:36;6.2;;;1.5;;
73315;SDS011;61545;53.726;-0.444;2023-06-26T06:43:36;4.3;;;1.3;;
73315;SDS011;61545;53.726;-0.444;2023-06-26T06:48:37;4.3;;;1.3;;
73315;SDS011;61545;53.726;-0.444;2023-06-26T06:53:37;5.6;;;1.6;;
73315;SDS011;61545;53.726;-0.444;2023-06-26T06:58:37;7.8;;;1.4;;
73315;SDS011;61545;53.726;-0.444;2023-06-26T07:03:37;9.1;;;1.6;;
73315;SDS011;61545;53.726;-0.444;2023-06-26T07:08:37;7.4;;;2.1;;
73315;SDS011;61545;53.726;-0.444;2023-06-26T07:13:37;3.9;;;1.2;;
73315;SDS011;61545;53.726;-0.444;2023-06-26T07:18:37;3.9;;;1.2;;
73315;SDS011;61545;53.726;-0.444;2023-06-26T07:23:37;4.5;;;1;;
73315;SDS011;61545;53.726;-0.444;2023-06-26T07:28:37;5.8;;;1.2;;
73315;SDS011;61545;53.726;-0.444;2023-06-26T07:33:37;4.3;;;1.3;;
73315;SDS011;61545;53.726;-0.444;2023-06-26T07:38:36;6.3;;;1.4;;
73315;SDS011;61545;53.726;-0.444;2023-06-26T07:43:37;5.8;;;1.5;;
73315;SDS011;61545;53.726;-0.444;2023-06-26T07:48:37;5.8;;;1.5;;
73315;SDS011;61545;53.726;-0.444;2023-06-26T07:53:37;8.0;;;1.4;;
73315;SDS011;61545;53.726;-0.444;2023-06-26T07:58:37;3.8;;;1.1;;
73315;SDS011;61545;53.726;-0.444;2023-06-26T08:03:37;8.5;;;2;;
73315;SDS011;61545;53.726;-0.444;2023-06-26T08:08:37;8.1;;;1.8;;
73315;SDS011;61545;53.726;-0.444;2023-06-26T08:13:37;7.1;;;1.7;;
73315;SDS011;61545;53.726;-0.444;2023-06-26T08:18:37;7.1;;;1.7;;
73315;SDS011;61545;53.726;-0.444;2023-06-26T08:23:37;5.0;;;1.7;;
73315;SDS011;61545;53.726;-0.444;2023-06-26T08:28:37;4.5;;;1.4;;
73315;SDS011;61545;53.726;-0.444;2023-06-26T08:33:37;4.7;;;1.6;;
73315;SDS011;61545;53.726;-0.444;2023-06-26T08:38:37;4.5;;;1.3;;
73315;SDS011;61545;53.726;-0.444;2023-06-26T08:43:37;6.3;;;1.6;;
73315;SDS011;61545;53.726;-0.444;2023-06-26T08:48:37;6.3;;;1.6;;
73315;SDS011;61545;53.726;-0.444;2023-06-26T08:53:40;5.9;;;1.4;;
73315;SDS011;61545;53.726;-0.444;2023-06-26T08:58:37;3.3;;;1.1;;
73315;SDS011;61545;53.726;-0.444;2023-06-26T09:03:37;5.5;;;1.3;;
73315;SDS011;61545;53.726;-0.444;2023-06-26T09:08:37;5.2;;;1.6;;
73315;SDS011;61545;53.726;-0.444;2023-06-26T09:13:38;5.6;;;1.4;;
73315;SDS011;61545;53.726;-0.444;2023-06-26T09:18:37;5.6;;;1.4;;
73315;SDS011;61545;53.726;-0.444;2023-06-26T09:23:37;7.6;;;1.7;;
73315;SDS011;61545;53.726;-0.444;2023-06-26T09:28:37;5.2;;;1.4;;
73315;SDS011;61545;53.726;-0.444;2023-06-26T09:33:37;6.6;;;1.4;;
73315;SDS011;61545;53.726;-0.444;2023-06-26T09:38:37;6.2;;;1.5;;
73315;SDS011;61545;53.726;-0.444;2023-06-26T09:43:45;7.0;;;1.7;;
73315;SDS011;61545;53.726;-0.444;2023-06-26T09:48:37;7.0;;;1.7;;
73315;SDS011;61545;53.726;-0.444;2023-06-26T09:53:37;2.9;;;1;;
73315;SDS011;61545;53.726;-0.444;2023-06-26T09:58:37;3.3;;;1.1;;
73315;SDS011;61545;53.726;-0.444;2023-06-26T10:03:37;6.6;;;1.1;;
73315;SDS011;61545;53.726;-0.444;2023-06-26T10:08:37;6.0;;;1.2;;
73315;SDS011;61545;53.726;-0.444;2023-06-26T10:13:38;3.7;;;1.5;;
73315;SDS011;61545;53.726;-0.444;2023-06-26T10:18:37;3.7;;;1.5;;
73315;SDS011;61545;53.726;-0.444;2023-06-26T10:23:37;7.4;;;1.5;;
73315;SDS011;61545;53.726;-0.444;2023-06-26T10:28:37;5.1;;;1.2;;
73315;SDS011;61545;53.726;-0.444;2023-06-26T10:33:37;7.1;;;1.8;;
73315;SDS011;61545;53.726;-0.444;2023-06-26T10:38:48;5.0;;;1.1;;
73315;SDS011;61545;53.726;-0.444;2023-06-26T10:43:37;6.7;;;1.3;;
73315;SDS011;61545;53.726;-0.444;2023-06-26T10:48:56;6.7;;;1.3;;
73315;SDS011;61545;53.726;-0.444;2023-06-26T10:53:37;4.4;;;1;;
73315;SDS011;61545;53.726;-0.444;2023-06-26T11:02:20;5.1;;;1.3;;
73315;SDS011;61545;53.726;-0.444;2023-06-26T11:07:20;5.1;;;1.3;;
73315;SDS011;61545;53.726;-0.444;2023-06-26T11:12:34;4.6;;;1.1;;
73315;SDS011;61545;53.726;-0.444;2023-06-26T11:17:20;4.0;;;1.1;;
73315;SDS011;61545;53.726;-0.444;2023-06-26T11:22:20;6.3;;;1.3;;
73315;SDS011;61545;53.726;-0.444;2023-06-26T11:27:20;3.6;;;1;;
73315;SDS011;61545;53.726;-0.444;2023-06-26T11:32:20;3.5;;;1.2;;
73315;SDS011;61545;53.726;-0.444;2023-06-26T11:37:20;3.5;;;1.2;;
73315;SDS011;61545;53.726;-0.444;2023-06-26T11:42:20;4.3;;;1.1;;
73315;SDS011;61545;53.726;-0.444;2023-06-26T11:47:20;3.0;;;0.9;;
73315;SDS011;61545;53.726;-0.444;2023-06-26T11:52:20;3.2;;;1.1;;
73315;SDS011;61545;53.726;-0.444;2023-06-26T11:57:20;4.2;;;1.1;;
73315;SDS011;61545;53.726;-0.444;2023-06-26T12:02:20;3.5;;;1.1;;
73315;SDS011;61545;53.726;-0.444;2023-06-26T12:07:20;3.5;;;1.1;;
73315;SDS011;61545;53.726;-0.444;2023-06-26T12:12:20;4.4;;;1;;
73315;SDS011;61545;53.726;-0.444;2023-06-26T12:17:22;4.5;;;1;;
73315;SDS011;61545;53.726;-0.444;2023-06-26T12:22:20;2.5;;;1;;
73315;SDS011;61545;53.726;-0.444;2023-06-26T12:27:20;3.1;;;1.1;;
73315;SDS011;61545;53.726;-0.444;2023-06-26T12:32:22;4.7;;;1.1;;
73315;SDS011;61545;53.726;-0.444;2023-06-26T12:37:20;4.7;;;1.1;;
73315;SDS011;61545;53.726;-0.444;2023-06-26T12:42:22;5.0;;;1.1;;
73315;SDS011;61545;53.726;-0.444;2023-06-26T12:47:24;3.4;;;1;;
73315;SDS011;61545;53.726;-0.444;2023-06-26T12:52:20;4.8;;;1;;
73315;SDS011;61545;53.726;-0.444;2023-06-26T12:57:20;2.5;;;0.8;;
73315;SDS011;61545;53.726;-0.444;2023-06-26T13:02:20;3.4;;;1.4;;
73315;SDS011;61545;53.726;-0.444;2023-06-26T13:07:20;3.4;;;1.4;;
73315;SDS011;61545;53.726;-0.444;2023-06-26T13:12:20;5.2;;;1.2;;
73315;SDS011;61545;53.726;-0.444;2023-06-26T13:17:20;3.9;;;1;;
73315;SDS011;61545;53.726;-0.444;2023-06-26T13:22:20;4.4;;;1.3;;
73315;SDS011;61545;53.726;-0.444;2023-06-26T13:27:20;6.5;;;1.2;;
73315;SDS011;61545;53.726;-0.444;2023-06-26T13:32:20;5.5;;;1;;
73315;SDS011;61545;53.726;-0.444;2023-06-26T13:37:20;5.5;;;1;;
73315;SDS011;61545;53.726;-0.444;2023-06-26T13:42:20;4.8;;;1;;
73315;SDS011;61545;53.726;-0.444;2023-06-26T13:47:20;5.5;;;1.1;;
73315;SDS011;61545;53.726;-0.444;2023-06-26T13:52:20;3.9;;;1;;
73315;SDS011;61545;53.726;-0.444;2023-06-26T13:57:20;3.9;;;1.1;;
73315;SDS011;61545;53.726;-0.444;2023-06-26T14:02:20;4.2;;;0.9;;
73315;SDS011;61545;53.726;-0.444;2023-06-26T14:07:20;4.2;;;0.9;;
73315;SDS011;61545;53.726;-0.444;2023-06-26T14:12:20;3.3;;;0.9;;
73315;SDS011;61545;53.726;-0.444;2023-06-26T14:17:20;4.1;;;0.8;;
73315;SDS011;61545;53.726;-0.444;2023-06-26T14:22:20;5.0;;;0.9;;
73315;SDS011;61545;53.726;-0.444;2023-06-26T14:27:20;3.0;;;0.9;;
73315;SDS011;61545;53.726;-0.444;2023-06-26T14:32:20;4.4;;;1.1;;
73315;SDS011;61545;53.726;-0.444;2023-06-26T14:37:20;4.4;;;1.1;;
73315;SDS011;61545;53.726;-0.444;2023-06-26T14:42:20;2.9;;;1;;
73315;SDS011;61545;53.726;-0.444;2023-06-26T14:47:20;4.1;;;0.9;;
73315;SDS011;61545;53.726;-0.444;2023-06-26T14:52:20;2.3;;;0.8;;
73315;SDS011;61545;53.726;-0.444;2023-06-26T14:57:20;5.1;;;1;;
73315;SDS011;61545;53.726;-0.444;2023-06-26T15:02:20;3.6;;;1;;
73315;SDS011;61545;53.726;-0.444;2023-06-26T15:07:20;3.6;;;1;;
73315;SDS011;61545;53.726;-0.444;2023-06-26T15:12:20;2.9;;;0.9;;
73315;SDS011;61545;53.726;-0.444;2023-06-26T15:17:20;4.3;;;1;;
73315;SDS011;61545;53.726;-0.444;2023-06-26T15:22:22;3.4;;;0.7;;
73315;SDS011;61545;53.726;-0.444;2023-06-26T15:27:20;6.0;;;1.2;;
73315;SDS011;61545;53.726;-0.444;2023-06-26T15:32:20;2.1;;;0.8;;
73315;SDS011;61545;53.726;-0.444;2023-06-26T15:37:20;2.1;;;0.8;;
73315;SDS011;61545;53.726;-0.444;2023-06-26T15:42:20;5.7;;;0.9;;
73315;SDS011;61545;53.726;-0.444;2023-06-26T15:47:20;3.1;;;0.9;;
73315;SDS011;61545;53.726;-0.444;2023-06-26T15:52:20;6.8;;;0.8;;
73315;SDS011;61545;53.726;-0.444;2023-06-26T15:57:20;3.1;;;1.1;;
73315;SDS011;61545;53.726;-0.444;2023-06-26T16:02:20;5.1;;;0.7;;
73315;SDS011;61545;53.726;-0.444;2023-06-26T16:07:20;5.1;;;0.7;;
73315;SDS011;61545;53.726;-0.444;2023-06-26T16:12:20;2.8;;;0.9;;
73315;SDS011;61545;53.726;-0.444;2023-06-26T16:17:20;3.2;;;1;;
73315;SDS011;61545;53.726;-0.444;2023-06-26T16:22:20;3.6;;;0.7;;
73315;SDS011;61545;53.726;-0.444;2023-06-26T16:27:20;2.3;;;0.9;;
73315;SDS011;61545;53.726;-0.444;2023-06-26T16:32:20;2.4;;;0.8;;
73315;SDS011;61545;53.726;-0.444;2023-06-26T16:37:20;2.4;;;0.8;;
73315;SDS011;61545;53.726;-0.444;2023-06-26T16:42:20;2.4;;;0.7;;
73315;SDS011;61545;53.726;-0.444;2023-06-26T16:47:20;2.8;;;1.1;;
73315;SDS011;61545;53.726;-0.444;2023-06-26T16:52:20;6.2;;;1.2;;
73315;SDS011;61545;53.726;-0.444;2023-06-26T16:57:20;3.0;;;1;;
73315;SDS011;61545;53.726;-0.444;2023-06-26T17:02:20;2.3;;;0.7;;
73315;SDS011;61545;53.726;-0.444;2023-06-26T17:07:20;2.3;;;0.7;;
73315;SDS011;61545;53.726;-0.444;2023-06-26T17:12:20;3.3;;;0.9;;
73315;SDS011;61545;53.726;-0.444;2023-06-26T17:17:20;2.3;;;0.8;;
73315;SDS011;61545;53.726;-0.444;2023-06-26T17:22:20;3.6;;;0.8;;
73315;SDS011;61545;53.726;-0.444;2023-06-26T17:27:20;6.6;;;1;;
73315;SDS011;61545;53.726;-0.444;2023-06-26T17:32:20;4.9;;;1;;
73315;SDS011;61545;53.726;-0.444;2023-06-26T17:37:20;4.9;;;1;;
73315;SDS011;61545;53.726;-0.444;2023-06-26T17:42:20;5.4;;;1.1;;
73315;SDS011;61545;53.726;-0.444;2023-06-26T17:47:20;3.0;;;1;;
73315;SDS011;61545;53.726;-0.444;2023-06-26T17:52:20;6.4;;;1.1;;
73315;SDS011;61545;53.726;-0.444;2023-06-26T17:57:20;5.3;;;1.1;;
73315;SDS011;61545;53.726;-0.444;2023-06-26T18:02:20;5.2;;;1.1;;
73315;SDS011;61545;53.726;-0.444;2023-06-26T18:07:20;5.2;;;1.1;;
73315;SDS011;61545;53.726;-0.444;2023-06-26T18:12:20;2.3;;;0.9;;
73315;SDS011;61545;53.726;-0.444;2023-06-26T18:17:20;3.5;;;1;;
73315;SDS011;61545;53.726;-0.444;2023-06-26T18:22:20;2.9;;;0.9;;
73315;SDS011;61545;53.726;-0.444;2023-06-26T18:27:20;3.4;;;1.2;;
73315;SDS011;61545;53.726;-0.444;2023-06-26T18:32:20;2.8;;;1.1;;
73315;SDS011;61545;53.726;-0.444;2023-06-26T18:37:20;2.8;;;1.1;;
73315;SDS011;61545;53.726;-0.444;2023-06-26T18:42:20;2.9;;;0.9;;
73315;SDS011;61545;53.726;-0.444;2023-06-26T18:47:20;3.1;;;0.9;;
73315;SDS011;61545;53.726;-0.444;2023-06-26T18:52:20;3.8;;;0.9;;
73315;SDS011;61545;53.726;-0.444;2023-06-26T18:57:20;3.5;;;1.2;;
73315;SDS011;61545;53.726;-0.444;2023-06-26T19:02:20;4.8;;;1;;
73315;SDS011;61545;53.726;-0.444;2023-06-26T19:07:20;4.8;;;1;;
73315;SDS011;61545;53.726;-0.444;2023-06-26T19:12:20;2.4;;;0.9;;
73315;SDS011;61545;53.726;-0.444;2023-06-26T19:17:20;5.0;;;0.9;;
73315;SDS011;61545;53.726;-0.444;2023-06-26T19:22:20;4.7;;;1.2;;
73315;SDS011;61545;53.726;-0.444;2023-06-26T19:27:20;4.1;;;0.9;;
73315;SDS011;61545;53.726;-0.444;2023-06-26T19:32:20;4.9;;;1;;
73315;SDS011;61545;53.726;-0.444;2023-06-26T19:37:20;4.9;;;1;;
73315;SDS011;61545;53.726;-0.444;2023-06-26T19:42:20;4.3;;;0.9;;
73315;SDS011;61545;53.726;-0.444;2023-06-26T19:47:20;2.5;;;0.8;;
73315;SDS011;61545;53.726;-0.444;2023-06-26T19:52:20;6.1;;;1.1;;
73315;SDS011;61545;53.726;-0.444;2023-06-26T19:57:20;5.2;;;1.3;;
73315;SDS011;61545;53.726;-0.444;2023-06-26T20:02:20;5.4;;;1.1;;
73315;SDS011;61545;53.726;-0.444;2023-06-26T20:07:20;5.4;;;1.1;;
73315;SDS011;61545;53.726;-0.444;2023-06-26T20:12:20;8.3;;;1.5;;
73315;SDS011;61545;53.726;-0.444;2023-06-26T20:17:20;7.2;;;1.3;;
73315;SDS011;61545;53.726;-0.444;2023-06-26T20:22:20;4.9;;;1.1;;
73315;SDS011;61545;53.726;-0.444;2023-06-26T20:27:20;5.8;;;1.2;;
73315;SDS011;61545;53.726;-0.444;2023-06-26T20:32:20;3.8;;;1.2;;
73315;SDS011;61545;53.726;-0.444;2023-06-26T20:37:20;3.8;;;1.2;;
73315;SDS011;61545;53.726;-0.444;2023-06-26T20:42:20;5.1;;;1.3;;
73315;SDS011;61545;53.726;-0.444;2023-06-26T20:47:20;4.5;;;1.3;;
73315;SDS011;61545;53.726;-0.444;2023-06-26T20:52:20;4.3;;;1.8;;
73315;SDS011;61545;53.726;-0.444;2023-06-26T20:57:20;6.1;;;1.3;;
73315;SDS011;61545;53.726;-0.444;2023-06-26T21:02:20;4.5;;;1.3;;
73315;SDS011;61545;53.726;-0.444;2023-06-26T21:07:20;4.5;;;1.3;;
73315;SDS011;61545;53.726;-0.444;2023-06-26T21:12:20;5.9;;;1.4;;
73315;SDS011;61545;53.726;-0.444;2023-06-26T21:17:20;5.9;;;1;;
73315;SDS011;61545;53.726;-0.444;2023-06-26T21:22:20;5.4;;;1.2;;
73315;SDS011;61545;53.726;-0.444;2023-06-26T21:27:20;5.4;;;1.3;;
73315;SDS011;61545;53.726;-0.444;2023-06-26T21:32:20;5.4;;;1.3;;
73315;SDS011;61545;53.726;-0.444;2023-06-26T21:37:20;5.0;;;1.2;;
73315;SDS011;61545;53.726;-0.444;2023-06-26T21:42:20;6.9;;;1.4;;
73315;SDS011;61545;53.726;-0.444;2023-06-26T21:47:20;7.2;;;1.2;;
73315;SDS011;61545;53.726;-0.444;2023-06-26T21:52:20;6.0;;;1.1;;
73315;SDS011;61545;53.726;-0.444;2023-06-26T21:57:20;5.4;;;1.2;;
73315;SDS011;61545;53.726;-0.444;2023-06-26T22:02:20;5.4;;;1.2;;
73315;SDS011;61545;53.726;-0.444;2023-06-26T22:07:20;5.4;;;1.2;;
73315;SDS011;61545;53.726;-0.444;2023-06-26T22:12:20;7.6;;;1.6;;
73315;SDS011;61545;53.726;-0.444;2023-06-26T22:17:20;3.3;;;1.1;;
73315;SDS011;61545;53.726;-0.444;2023-06-26T22:22:20;4.5;;;1.2;;
73315;SDS011;61545;53.726;-0.444;2023-06-26T22:27:20;4.8;;;1.5;;
73315;SDS011;61545;53.726;-0.444;2023-06-26T22:32:20;4.8;;;1.5;;
73315;SDS011;61545;53.726;-0.444;2023-06-26T22:37:20;5.2;;;1.1;;
73315;SDS011;61545;53.726;-0.444;2023-06-26T22:42:20;5.6;;;1.2;;
73315;SDS011;61545;53.726;-0.444;2023-06-26T22:47:20;4.4;;;1.2;;
73315;SDS011;61545;53.726;-0.444;2023-06-26T22:52:20;7.5;;;1.4;;
73315;SDS011;61545;53.726;-0.444;2023-06-26T22:57:20;4.0;;;1.1;;
73315;SDS011;61545;53.726;-0.444;2023-06-26T23:02:20;4.0;;;1.1;;
73315;SDS011;61545;53.726;-0.444;2023-06-26T23:07:20;4.1;;;1.2;;
73315;SDS011;61545;53.726;-0.444;2023-06-26T23:12:20;5.8;;;1.1;;
73315;SDS011;61545;53.726;-0.444;2023-06-26T23:17:20;6.3;;;1.3;;
73315;SDS011;61545;53.726;-0.444;2023-06-26T23:22:20;5.9;;;1.4;;
73315;SDS011;61545;53.726;-0.444;2023-06-26T23:27:20;6.4;;;1.4;;
73315;SDS011;61545;53.726;-0.444;2023-06-26T23:32:20;6.4;;;1.4;;
73315;SDS011;61545;53.726;-0.444;2023-06-26T23:37:20;5.5;;;1.2;;
73315;SDS011;61545;53.726;-0.444;2023-06-26T23:42:20;3.8;;;1.4;;
73315;SDS011;61545;53.726;-0.444;2023-06-26T23:47:20;9.7;;;1.6;;
73315;SDS011;61545;53.726;-0.444;2023-06-26T23:52:20;7.3;;;1.6;;
73315;SDS011;61545;53.726;-0.444;2023-06-26T23:57:20;5.3;;;1.3;;
